createdAt,value
2022-07-27T00:02:03.520Z,19.49
2022-07-27T00:07:06.308Z,19.47
2022-07-27T00:12:09.138Z,19.40
2022-07-27T00:17:11.781Z,19.32
2022-07-27T00:22:14.537Z,19.18
2022-07-27T00:27:17.283Z,19.30
2022-07-27T00:32:20.512Z,19.30
2022-07-27T00:37:23.144Z,19.24
2022-07-27T00:42:28.438Z,19.15
2022-07-27T00:47:31.242Z,19.09
2022-07-27T00:52:34.637Z,19.13
2022-07-27T00:57:58.533Z,19.12
2022-07-27T01:03:02.579Z,19.13
2022-07-27T01:08:14.458Z,19.17
2022-07-27T01:13:17.480Z,19.07
2022-07-27T01:18:32.252Z,18.98
2022-07-27T01:23:35.351Z,18.96
2022-07-27T01:28:38.005Z,18.98
2022-07-27T01:33:40.663Z,18.91
2022-07-27T01:38:43.720Z,18.97
2022-07-27T01:43:46.513Z,19.41
2022-07-27T01:48:49.363Z,20.25
2022-07-27T01:53:52.196Z,21.06
2022-07-27T01:58:55.468Z,22.09
2022-07-27T02:03:58.183Z,23.08
2022-07-27T02:09:01.693Z,24.10
2022-07-27T02:14:04.572Z,25.23
2022-07-27T02:19:07.253Z,26.38
2022-07-27T02:24:11.837Z,27.57
2022-07-27T02:29:14.836Z,28.70
2022-07-27T02:34:17.658Z,29.28
2022-07-27T02:39:20.437Z,30.69
2022-07-27T02:44:23.662Z,31.90
2022-07-27T02:49:26.509Z,32.89
2022-07-27T02:54:31.801Z,33.75
2022-07-27T02:59:34.568Z,34.81
2022-07-27T03:04:37.423Z,35.30
2022-07-27T03:09:40.306Z,35.59
2022-07-27T03:14:42.945Z,33.01
2022-07-27T03:19:45.597Z,31.18
2022-07-27T03:24:48.329Z,30.28
2022-07-27T03:29:51.217Z,29.43
2022-07-27T03:34:53.881Z,29.16
2022-07-27T03:39:56.712Z,28.56
2022-07-27T03:44:59.387Z,27.93
2022-07-27T03:50:02.422Z,27.91
2022-07-27T03:55:07.525Z,27.90
2022-07-27T04:00:14.256Z,28.14
2022-07-27T04:05:17.001Z,28.55
2022-07-27T04:10:19.826Z,28.37
2022-07-27T04:15:25.609Z,28.12
2022-07-27T04:20:28.333Z,28.06
2022-07-27T04:25:31.169Z,28.07
2022-07-27T04:30:33.970Z,28.21
2022-07-27T04:35:36.751Z,28.24
2022-07-27T04:40:39.491Z,28.30
2022-07-27T04:45:42.539Z,28.14
2022-07-27T04:50:47.443Z,28.31
2022-07-27T04:55:50.289Z,28.42
2022-07-27T05:00:53.258Z,28.42
2022-07-27T05:05:56.153Z,28.55
2022-07-27T05:10:59.175Z,28.68
2022-07-27T05:16:01.903Z,28.85
2022-07-27T05:21:05.328Z,28.99
2022-07-27T05:26:08.081Z,28.94
2022-07-27T05:31:10.767Z,28.99
2022-07-27T05:36:13.945Z,29.17
2022-07-27T05:41:26.297Z,29.18
2022-07-27T05:46:32.646Z,29.26
2022-07-27T05:51:35.756Z,29.49
2022-07-27T05:56:38.779Z,29.25
2022-07-27T06:01:41.566Z,29.34
2022-07-27T06:07:03.014Z,28.89
2022-07-27T06:12:06.013Z,28.59
2022-07-27T06:17:09.496Z,29.18
2022-07-27T06:22:13.650Z,29.67
2022-07-27T06:27:16.586Z,29.90
2022-07-27T06:32:19.383Z,30.19
2022-07-27T06:37:22.452Z,30.28
2022-07-27T06:42:25.336Z,29.97
2022-07-27T06:47:28.961Z,30.32
2022-07-27T06:52:31.792Z,29.90
2022-07-27T06:57:34.472Z,30.33
2022-07-27T07:02:37.285Z,29.81
2022-07-27T07:07:40.388Z,29.34
2022-07-27T07:12:43.312Z,29.47
2022-07-27T07:17:45.963Z,30.17
2022-07-27T07:22:48.617Z,30.59
2022-07-27T07:27:52.162Z,30.98
2022-07-27T07:32:55.260Z,30.94
2022-07-27T07:37:57.886Z,31.20
2022-07-27T07:43:03.161Z,31.27
2022-07-27T07:48:07.390Z,31.00
2022-07-27T07:53:11.426Z,30.63
2022-07-27T07:58:17.310Z,30.26
2022-07-27T08:03:20.189Z,31.14
2022-07-27T08:08:24.936Z,31.62
2022-07-27T08:13:27.896Z,31.31
2022-07-27T08:18:30.617Z,31.09
2022-07-27T08:23:33.319Z,31.62
2022-07-27T08:28:37.151Z,32.23
2022-07-27T08:33:40.927Z,32.27
2022-07-27T08:38:43.686Z,32.55
2022-07-27T08:43:48.752Z,32.70
2022-07-27T08:48:52.096Z,32.30
2022-07-27T08:53:56.294Z,32.35
2022-07-27T08:58:58.987Z,32.98
2022-07-27T09:04:02.003Z,32.62
2022-07-27T09:09:04.742Z,32.49
2022-07-27T09:14:12.494Z,32.50
2022-07-27T09:19:16.705Z,32.20
2022-07-27T09:24:46.963Z,32.71
2022-07-27T09:29:42.299Z,32.75
2022-07-27T09:34:45.120Z,33.34
2022-07-27T09:39:48.504Z,33.93
2022-07-27T09:44:54.839Z,34.38
2022-07-27T09:50:17.717Z,34.55
2022-07-27T09:55:21.308Z,34.40
2022-07-27T10:00:25.606Z,34.54
2022-07-27T10:05:29.108Z,34.20
2022-07-27T10:10:31.893Z,34.62
2022-07-27T10:15:34.687Z,34.26
2022-07-27T10:20:39.679Z,34.05
2022-07-27T10:25:44.113Z,34.17
2022-07-27T10:30:53.623Z,33.48
2022-07-27T10:35:57.103Z,32.95
2022-07-27T10:41:21.937Z,32.77
2022-07-27T10:46:24.590Z,32.43
2022-07-27T10:51:36.702Z,32.42
2022-07-27T10:56:50.401Z,32.35
2022-07-27T11:02:02.094Z,32.21
2022-07-27T11:12:31.161Z,32.42
2022-07-27T11:23:48.669Z,32.11
2022-07-27T11:28:29.086Z,32.05
2022-07-27T11:33:32.478Z,31.92
2022-07-27T11:38:53.000Z,32.09
2022-07-27T11:44:01.212Z,32.03
2022-07-27T11:49:09.046Z,32.04
2022-07-27T11:54:22.453Z,31.95
2022-07-27T11:59:31.883Z,32.12
2022-07-27T12:04:40.197Z,32.32
2022-07-27T12:09:58.080Z,32.27
2022-07-27T12:15:42.793Z,32.29
2022-07-27T12:20:37.886Z,32.11
2022-07-27T12:25:41.417Z,31.90
2022-07-27T12:30:49.484Z,31.67
2022-07-27T12:35:52.302Z,31.25
2022-07-27T12:41:00.525Z,30.27
2022-07-27T12:46:14.197Z,28.05
2022-07-27T12:51:23.989Z,27.97
2022-07-27T12:56:27.408Z,28.69
2022-07-27T13:01:30.933Z,29.49
2022-07-27T13:06:33.863Z,29.24
2022-07-27T13:11:36.501Z,29.04
2022-07-27T13:16:39.334Z,28.77
2022-07-27T13:21:42.079Z,28.69
2022-07-27T13:26:44.678Z,28.77
2022-07-27T13:31:52.440Z,28.74
2022-07-27T13:36:57.735Z,28.65
2022-07-27T13:42:00.552Z,28.59
2022-07-27T13:47:03.839Z,28.66
2022-07-27T13:52:06.985Z,28.70
2022-07-27T13:57:09.665Z,28.64
2022-07-27T14:02:12.404Z,28.46
2022-07-27T14:07:15.676Z,28.69
2022-07-27T14:12:18.323Z,29.02
2022-07-27T14:17:21.092Z,29.25
2022-07-27T14:22:23.750Z,29.36
2022-07-27T14:27:26.390Z,29.57
2022-07-27T14:32:38.905Z,29.59
2022-07-27T14:37:41.637Z,29.47
2022-07-27T14:42:44.360Z,29.64
2022-07-27T14:47:47.797Z,29.73
2022-07-27T14:52:50.910Z,29.67
2022-07-27T14:57:53.969Z,29.77
2022-07-27T15:02:56.667Z,29.68
2022-07-27T15:08:00.490Z,29.73
2022-07-27T15:13:05.104Z,29.62
2022-07-27T15:18:08.108Z,29.64
2022-07-27T15:23:10.956Z,29.46
2022-07-27T15:28:13.652Z,29.45
2022-07-27T15:33:16.466Z,29.50
2022-07-27T15:38:19.344Z,29.57
2022-07-27T15:43:22.040Z,29.47
2022-07-27T15:48:26.260Z,29.42
2022-07-27T15:53:29.934Z,29.38
2022-07-27T15:58:32.665Z,29.20
2022-07-27T16:03:35.470Z,29.09
2022-07-27T16:08:39.169Z,28.88
2022-07-27T16:13:42.288Z,28.74
2022-07-27T16:18:46.845Z,28.39
2022-07-27T16:23:50.951Z,28.18
2022-07-27T16:28:57.101Z,27.93
2022-07-27T16:33:59.956Z,27.52
2022-07-27T16:39:02.744Z,27.26
2022-07-27T16:44:05.738Z,26.98
2022-07-27T16:49:09.148Z,26.72
2022-07-27T16:54:15.790Z,26.55
2022-07-27T16:59:20.846Z,26.38
2022-07-27T17:04:24.845Z,26.20
2022-07-27T17:09:28.710Z,26.00
2022-07-27T17:14:31.455Z,25.82
2022-07-27T17:19:35.294Z,25.59
2022-07-27T17:24:38.412Z,25.41
2022-07-27T17:29:41.457Z,25.28
2022-07-27T17:34:47.678Z,25.12
2022-07-27T17:39:50.671Z,25.02
2022-07-27T17:44:53.760Z,24.95
2022-07-27T17:49:58.080Z,25.01
2022-07-27T17:55:01.860Z,24.80
2022-07-27T18:00:07.788Z,24.96
2022-07-27T18:05:12.886Z,24.79
2022-07-27T18:10:16.852Z,24.68
2022-07-27T18:15:38.264Z,24.50
2022-07-27T18:20:41.696Z,24.52
2022-07-27T18:25:45.254Z,24.42
2022-07-27T18:30:50.128Z,24.37
2022-07-27T18:35:54.055Z,24.30
2022-07-27T18:40:59.954Z,24.31
2022-07-27T18:46:03.177Z,24.17
2022-07-27T18:51:05.910Z,24.07
2022-07-27T18:56:08.576Z,23.84
2022-07-27T19:01:11.649Z,23.77
2022-07-27T19:06:17.856Z,23.61
2022-07-27T19:11:21.780Z,23.47
2022-07-27T19:16:25.579Z,23.36
2022-07-27T19:21:28.469Z,23.22
2022-07-27T19:26:31.228Z,23.10
2022-07-27T19:31:34.404Z,22.99
2022-07-27T19:36:37.449Z,22.94
2022-07-27T19:41:40.356Z,22.85
2022-07-27T19:46:43.489Z,22.77
2022-07-27T19:51:46.274Z,22.66
2022-07-27T19:56:49.016Z,22.54
2022-07-27T20:01:51.791Z,22.30
2022-07-27T20:06:54.536Z,22.17
2022-07-27T20:12:00.461Z,22.06
2022-07-27T20:17:04.296Z,21.98
2022-07-27T20:22:07.097Z,21.84
2022-07-27T20:27:10.307Z,21.85
2022-07-27T20:32:14.777Z,21.81
2022-07-27T20:37:17.490Z,21.73
2022-07-27T20:42:20.183Z,21.62
2022-07-27T20:47:22.893Z,21.58
2022-07-27T20:52:26.116Z,21.49
2022-07-27T20:57:29.063Z,21.33
2022-07-27T21:02:32.305Z,21.34
2022-07-27T21:07:35.061Z,21.23
2022-07-27T21:12:37.830Z,21.08
2022-07-27T21:17:40.931Z,21.12
2022-07-27T21:22:43.688Z,20.90
2022-07-27T21:27:46.489Z,20.92
2022-07-27T21:32:50.926Z,20.83
2022-07-27T21:37:53.566Z,20.75
2022-07-27T21:42:56.312Z,20.62
2022-07-27T21:47:58.966Z,20.66
2022-07-27T21:53:01.582Z,20.60
2022-07-27T21:58:04.870Z,20.49
2022-07-27T22:03:08.699Z,20.48
2022-07-27T22:08:11.441Z,20.44
2022-07-27T22:13:14.121Z,20.43
2022-07-27T22:18:17.786Z,20.49
2022-07-27T22:23:20.623Z,20.46
2022-07-27T22:28:25.457Z,20.28
2022-07-27T22:33:29.235Z,20.34
2022-07-27T22:38:31.921Z,20.38
2022-07-27T22:43:34.698Z,20.37
2022-07-27T22:48:37.410Z,20.35
2022-07-27T22:53:40.155Z,20.38
2022-07-27T22:58:42.873Z,20.34
2022-07-27T23:03:45.470Z,20.19
2022-07-27T23:08:48.202Z,20.18
2022-07-27T23:13:50.917Z,20.20
2022-07-27T23:18:53.614Z,20.15
2022-07-27T23:23:56.745Z,20.26
2022-07-27T23:29:01.858Z,20.24
2022-07-27T23:34:04.519Z,20.25
2022-07-27T23:39:07.322Z,20.26
2022-07-27T23:44:10.456Z,20.16
2022-07-27T23:49:13.667Z,20.02
2022-07-27T23:54:16.595Z,19.99
2022-07-27T23:59:19.802Z,19.93
